Terminal Aerodrome Forecast
Issued by NWS Boston, MA

Home | Current Version | Previous Version | Text Only | Print | Product List | Glossary On
Versions: 1 2 3 4 5 6 7 8 9 10 11 12 13 14 15 16 17 18 19 20 21 22 23 24 25 26 27 28 29 30 31 32 33 34 35 36 37 38 39 40 41 42 43 44 45 46 47 48
000
FTUS41 KBOX 180537
TAFBOS
TAF
KBOS 180537Z 1806/1912 28006KT P6SM SKC
     FM181100 34004KT P6SM SKC
     FM181300 06005KT P6SM FEW250
     FM181600 09009KT P6SM SCT050
     FM182000 35012G22KT P6SM BKN050
     FM182100 31013G23KT P6SM BKN050
     FM190800 34009KT P6SM FEW050=

USA.gov is the U.S. government's official web portal to all federal, state and local government web resources and services.